Weather History for Port Lavaca, TX

Change the Weather History Date:

Monday, November 19, 2012

  Actual Average (KVCT) Record (KVCT)
Temperature  
Mean Temperature 63 °F 62 °F  
Max Temperature 73 °F 73 °F 87 °F (1988)
Min Temperature 53 °F 51 °F 30 °F (1959)
Degree Days  
Heating Degree Days 2 5  
Month to date heating degree days 66  
Since 1 July heating degree days 89  
Cooling Degree Days 0 2  
Month to date cooling degree days 62  
Year to date cooling degree days 3105  
Growing Degree Days 13 (Base 50)    
Moisture  
Dew Point 54 °F    
Average Humidity 75    
Maximum Humidity 94    
Minimum Humidity 53    
Precipitation  
Precipitation 0.00 in 0.10 in 6.63 in (1982)
Month to date precipitation 2.13  
Year to date precipitation 37.80  
Sea Level Pressure  
Sea Level Pressure 30.20 in    
Wind  
Wind Speed 7 mph (ESE)    
Max Wind Speed 13 mph    
Max Gust Speed -    
Visibility 10 miles    
Events      
T = Trace of Precipitation, MM = Missing Value Source: NWS Daily Summary

Daily Weather History Graph

Daily Weather History Graph

Search for Another Location

Airport:

Trip Planner

Search our weather history database for the weather conditions in past years. The results will help you decide how hot, cold, wet, or windy it might be!

Date:

Astronomy

Nov. 19, 2012 Rise Set
Actual Time 6:53 AM CST 5:31 PM CST
Civil Twilight 6:27 AM CST 5:56 PM CST
Nautical Twilight 5:59 AM CST 6:25 PM CST
Astronomical Twilight 5:30 AM CST 6:53 PM CST
Moon 12:07 PM CST (11/19) 11:46 PM CST (11/19)
Length of Visible Light 11h 28m
Length of Day
10h 38m
Waxing Crescent, 41% of the Moon is Illuminated
Nov 19
Waxing Crescent
Nov 20
First Quarter
Nov 28
Full
Dec 6
Last Quarter
Dec 13
New

Hourly Weather History & Observations

Time (CST) Temp. Dew Point Humidity Pressure Visibility Wind Dir Wind Speed Gust Speed Precip Events Conditions
12:15 AM 60.8 °F 53.6 °F 77% 30.23 in 10.0 mi East 9.2 mph - N/A   Clear
12:35 AM 60.8 °F 53.6 °F 77% 30.23 in 10.0 mi East 8.1 mph - N/A   Clear
12:55 AM 60.8 °F 53.6 °F 77% 30.21 in 10.0 mi ESE 9.2 mph - N/A   Clear
1:15 AM 60.8 °F 53.6 °F 77% 30.22 in 10.0 mi East 9.2 mph - N/A   Clear
1:35 AM 60.8 °F 53.6 °F 77% 30.21 in 10.0 mi East 8.1 mph - N/A   Clear
1:55 AM 60.8 °F 51.8 °F 72% 30.21 in 10.0 mi East 6.9 mph - N/A   Clear
2:15 AM 60.8 °F 51.8 °F 72% 30.21 in 10.0 mi East 4.6 mph - N/A   Clear
2:35 AM 57.2 °F 51.8 °F 82% 30.21 in 10.0 mi NE 3.5 mph - N/A   Clear
2:55 AM 55.4 °F 51.8 °F 88% 30.21 in 10.0 mi East 3.5 mph - N/A   Scattered Clouds
3:15 AM 55.4 °F 51.8 °F 88% 30.21 in 10.0 mi ENE 4.6 mph - N/A   Scattered Clouds
3:35 AM 53.6 °F 50.0 °F 88% 30.21 in 10.0 mi ENE 6.9 mph - N/A   Clear
3:55 AM 55.4 °F 51.8 °F 88% 30.20 in 10.0 mi ENE 6.9 mph - N/A   Clear
4:15 AM 55.4 °F 51.8 °F 88% 30.21 in 10.0 mi ENE 5.8 mph - N/A   Clear
4:35 AM 55.4 °F 51.8 °F 88% 30.20 in 10.0 mi East 6.9 mph - N/A   Clear
4:55 AM 55.4 °F 51.8 °F 88% 30.20 in 10.0 mi ENE 5.8 mph - N/A   Clear
5:15 AM 55.4 °F 50.0 °F 82% 30.21 in 10.0 mi ENE 6.9 mph - N/A   Clear
5:35 AM 55.4 °F 51.8 °F 88% 30.21 in 10.0 mi ENE 8.1 mph - N/A   Clear
5:55 AM 55.4 °F 50.0 °F 82% 30.21 in 10.0 mi ENE 6.9 mph - N/A   Clear
6:15 AM 55.4 °F 50.0 °F 82% 30.21 in 10.0 mi ENE 5.8 mph - N/A   Clear
6:35 AM 55.4 °F 50.0 °F 82% 30.22 in 10.0 mi East 4.6 mph - N/A   Clear
6:55 AM 55.4 °F 50.0 °F 82% 30.22 in 10.0 mi East 4.6 mph - N/A   Clear
7:35 AM 57.2 °F 51.8 °F 82% 30.23 in 10.0 mi ENE 5.8 mph - N/A   Clear
7:55 AM 59.0 °F 51.8 °F 77% 30.24 in 10.0 mi ENE 4.6 mph - N/A   Clear
8:15 AM 60.8 °F 53.6 °F 77% 30.24 in 10.0 mi ENE 6.9 mph - N/A   Clear
8:35 AM 62.6 °F 53.6 °F 72% 30.25 in 10.0 mi East 4.6 mph - N/A   Clear
8:55 AM 64.4 °F 53.6 °F 68% 30.25 in 10.0 mi East 6.9 mph - N/A   Clear
9:15 AM 68.0 °F 53.6 °F 60% 30.26 in 10.0 mi ENE 6.9 mph - N/A   Clear
9:35 AM 68.0 °F 53.6 °F 60% 30.26 in 10.0 mi East 8.1 mph - N/A   Clear
9:55 AM 69.8 °F 55.4 °F 60% 30.26 in 10.0 mi East 6.9 mph - N/A   Clear
10:15 AM 69.8 °F 53.6 °F 56% 30.26 in 10.0 mi ESE 8.1 mph - N/A   Clear
10:35 AM 71.6 °F 53.6 °F 53% 30.26 in 10.0 mi East 9.2 mph - N/A   Clear
10:55 AM 71.6 °F 53.6 °F 53% 30.26 in 10.0 mi ESE 9.2 mph - N/A   Clear
11:15 AM 71.6 °F 55.4 °F 57% 30.25 in 10.0 mi East 8.1 mph - N/A   Clear
11:35 AM 71.6 °F 53.6 °F 53% 30.25 in 10.0 mi SE 9.2 mph - N/A   Clear
11:55 AM 71.6 °F 53.6 °F 53% 30.24 in 10.0 mi East 8.1 mph - N/A   Clear
12:15 PM 71.6 °F 55.4 °F 57% 30.23 in 10.0 mi East 8.1 mph - N/A   Clear
12:35 PM 73.4 °F 55.4 °F 53% 30.22 in 10.0 mi ESE 8.1 mph - N/A   Clear
12:55 PM 71.6 °F 55.4 °F 57% 30.21 in 10.0 mi ESE 10.4 mph - N/A   Clear
1:15 PM 71.6 °F 55.4 °F 57% 30.20 in 10.0 mi ESE 10.4 mph - N/A   Scattered Clouds
1:35 PM 73.4 °F 55.4 °F 53% 30.19 in 10.0 mi ESE 9.2 mph - N/A   Scattered Clouds
1:55 PM 73.4 °F 55.4 °F 53% 30.17 in 10.0 mi ESE 10.4 mph - N/A   Clear
2:15 PM 73.4 °F 55.4 °F 53% 30.16 in 10.0 mi East 11.5 mph - N/A   Clear
2:35 PM 73.4 °F 55.4 °F 53% 30.16 in 10.0 mi ESE 12.7 mph - N/A   Clear
2:55 PM 73.4 °F 55.4 °F 53% 30.16 in 10.0 mi ESE 11.5 mph - N/A   Clear
3:15 PM 71.6 °F 53.6 °F 53% 30.15 in 10.0 mi ESE 12.7 mph - N/A   Clear
3:35 PM 71.6 °F 55.4 °F 57% 30.15 in 10.0 mi ESE 11.5 mph - N/A   Clear
3:55 PM 71.6 °F 55.4 °F 57% 30.15 in 10.0 mi ESE 11.5 mph - N/A   Clear
4:15 PM 69.8 °F 55.4 °F 60% 30.16 in 10.0 mi ESE 10.4 mph - N/A   Clear
4:35 PM 69.8 °F 55.4 °F 60% 30.15 in 10.0 mi ESE 10.4 mph - N/A   Clear
4:55 PM 68.0 °F 57.2 °F 68% 30.15 in 10.0 mi ESE 9.2 mph - N/A   Clear
5:15 PM 68.0 °F 57.2 °F 68% 30.15 in 10.0 mi ESE 9.2 mph - N/A   Clear
5:35 PM 66.2 °F 59.0 °F 78% 30.16 in 10.0 mi ESE 8.1 mph - N/A   Clear
5:55 PM 64.4 °F 59.0 °F 83% 30.17 in 10.0 mi SE 6.9 mph - N/A   Clear
6:15 PM 64.4 °F 59.0 °F 83% 30.17 in 10.0 mi SE 4.6 mph - N/A   Clear
6:35 PM 62.6 °F 57.2 °F 82% 30.17 in 10.0 mi SE 5.8 mph - N/A   Clear
6:55 PM 62.6 °F 57.2 °F 82% 30.18 in 10.0 mi SSE 3.5 mph - N/A   Clear
7:15 PM 62.6 °F 59.0 °F 88% 30.19 in 10.0 mi South 3.5 mph - N/A   Clear
7:35 PM 60.8 °F 57.2 °F 88% 30.19 in 10.0 mi SSE 4.6 mph - N/A   Clear
7:55 PM 60.8 °F 57.2 °F 88% 30.19 in 10.0 mi SE 4.6 mph - N/A   Clear
8:15 PM 60.8 °F 57.2 °F 88% 30.19 in 10.0 mi SE 4.6 mph - N/A   Clear
8:35 PM 60.8 °F 57.2 °F 88% 30.19 in 10.0 mi SSE 3.5 mph - N/A   Clear
8:55 PM 60.8 °F 57.2 °F 88% 30.20 in 10.0 mi SSE 3.5 mph - N/A   Clear
9:15 PM 59.0 °F 57.2 °F 94% 30.19 in 10.0 mi Calm Calm - N/A   Clear
9:35 PM 59.0 °F 57.2 °F 94% 30.19 in 10.0 mi SE 3.5 mph - N/A   Clear
9:55 PM 59.0 °F 57.2 °F 94% 30.19 in 10.0 mi SE 3.5 mph - N/A   Clear
10:15 PM 57.2 °F 55.4 °F 94% 30.18 in 10.0 mi SE 4.6 mph - N/A   Clear
10:35 PM 59.0 °F 57.2 °F 94% 30.18 in 7.0 mi SSE 3.5 mph - N/A   Clear
10:55 PM 59.0 °F 57.2 °F 94% 30.18 in 5.0 mi Calm Calm - N/A   Clear
11:15 PM 59.0 °F 57.2 °F 94% 30.18 in 3.0 mi SSE 3.5 mph - N/A   Clear
11:35 PM 57.2 °F 55.4 °F 94% 30.18 in 3.0 mi Calm Calm - N/A   Clear
11:55 PM 55.4 °F 53.6 °F 94% 30.18 in 2.5 mi Calm Calm - N/A   Clear